sensor_id;sensor_type;location;lat;lon;timestamp;P1;durP1;ratioP1;P2;durP2;ratioP2
82926;SDS011;72788;40.218;44.486;2023-10-13T00:01:54;7.25;;;1.98;;
82926;SDS011;72788;40.218;44.486;2023-10-13T00:04:28;10.40;;;1.90;;
82926;SDS011;72788;40.218;44.486;2023-10-13T00:06:54;8.82;;;1.70;;
82926;SDS011;72788;40.218;44.486;2023-10-13T00:09:23;7.38;;;2.28;;
82926;SDS011;72788;40.218;44.486;2023-10-13T00:11:54;8.82;;;2.90;;
82926;SDS011;72788;40.218;44.486;2023-10-13T00:14:21;9.80;;;2.10;;
82926;SDS011;72788;40.218;44.486;2023-10-13T00:16:47;6.90;;;1.90;;
82926;SDS011;72788;40.218;44.486;2023-10-13T00:19:32;6.53;;;2.17;;
82926;SDS011;72788;40.218;44.486;2023-10-13T00:22:15;10.60;;;2.40;;
82926;SDS011;72788;40.218;44.486;2023-10-13T00:24:43;6.72;;;2.17;;
82926;SDS011;72788;40.218;44.486;2023-10-13T00:27:13;7.35;;;2.13;;
82926;SDS011;72788;40.218;44.486;2023-10-13T00:29:52;8.60;;;2.45;;
82926;SDS011;72788;40.218;44.486;2023-10-13T00:32:39;10.68;;;2.33;;
82926;SDS011;72788;40.218;44.486;2023-10-13T00:35:08;8.65;;;2.35;;
82926;SDS011;72788;40.218;44.486;2023-10-13T00:37:37;8.13;;;2.30;;
82926;SDS011;72788;40.218;44.486;2023-10-13T00:40:12;8.27;;;2.25;;
82926;SDS011;72788;40.218;44.486;2023-10-13T00:42:58;11.43;;;2.15;;
82926;SDS011;72788;40.218;44.486;2023-10-13T00:48:24;10.05;;;2.50;;
82926;SDS011;72788;40.218;44.486;2023-10-13T00:50:57;8.45;;;2.50;;
82926;SDS011;72788;40.218;44.486;2023-10-13T00:53:28;9.77;;;2.42;;
82926;SDS011;72788;40.218;44.486;2023-10-13T00:58:36;7.30;;;2.50;;
82926;SDS011;72788;40.218;44.486;2023-10-13T01:01:05;7.70;;;2.65;;
82926;SDS011;72788;40.218;44.486;2023-10-13T01:03:47;9.18;;;2.40;;
82926;SDS011;72788;40.218;44.486;2023-10-13T01:06:20;9.75;;;2.80;;
82926;SDS011;72788;40.218;44.486;2023-10-13T01:08:57;7.90;;;2.47;;
82926;SDS011;72788;40.218;44.486;2023-10-13T01:11:47;8.05;;;2.63;;
82926;SDS011;72788;40.218;44.486;2023-10-13T01:14:17;10.40;;;3.92;;
82926;SDS011;72788;40.218;44.486;2023-10-13T01:16:45;11.88;;;2.92;;
82926;SDS011;72788;40.218;44.486;2023-10-13T01:19:12;8.88;;;3.10;;
82926;SDS011;72788;40.218;44.486;2023-10-13T01:21:42;9.32;;;2.55;;
82926;SDS011;72788;40.218;44.486;2023-10-13T01:24:09;9.07;;;2.60;;
82926;SDS011;72788;40.218;44.486;2023-10-13T01:26:36;10.68;;;2.92;;
82926;SDS011;72788;40.218;44.486;2023-10-13T01:29:05;15.07;;;3.25;;
82926;SDS011;72788;40.218;44.486;2023-10-13T01:31:40;11.27;;;3.30;;
82926;SDS011;72788;40.218;44.486;2023-10-13T01:34:16;7.97;;;3.15;;
82926;SDS011;72788;40.218;44.486;2023-10-13T01:36:50;8.75;;;2.85;;
82926;SDS011;72788;40.218;44.486;2023-10-13T01:39:17;11.73;;;3.25;;
82926;SDS011;72788;40.218;44.486;2023-10-13T01:41:44;8.05;;;3.13;;
82926;SDS011;72788;40.218;44.486;2023-10-13T01:44:10;12.70;;;3.38;;
82926;SDS011;72788;40.218;44.486;2023-10-13T01:46:39;11.35;;;3.38;;
82926;SDS011;72788;40.218;44.486;2023-10-13T01:49:07;9.18;;;3.40;;
82926;SDS011;72788;40.218;44.486;2023-10-13T01:51:33;10.73;;;3.45;;
82926;SDS011;72788;40.218;44.486;2023-10-13T01:53:59;12.73;;;3.70;;
82926;SDS011;72788;40.218;44.486;2023-10-13T01:56:28;9.25;;;3.63;;
82926;SDS011;72788;40.218;44.486;2023-10-13T01:58:55;9.25;;;3.08;;
82926;SDS011;72788;40.218;44.486;2023-10-13T02:01:21;11.13;;;3.55;;
82926;SDS011;72788;40.218;44.486;2023-10-13T02:03:55;11.40;;;3.20;;
82926;SDS011;72788;40.218;44.486;2023-10-13T02:06:33;11.98;;;3.78;;
82926;SDS011;72788;40.218;44.486;2023-10-13T02:09:07;10.63;;;3.38;;
82926;SDS011;72788;40.218;44.486;2023-10-13T02:11:51;16.42;;;3.60;;
82926;SDS011;72788;40.218;44.486;2023-10-13T02:14:21;15.00;;;3.75;;
82926;SDS011;72788;40.218;44.486;2023-10-13T02:16:48;9.20;;;3.20;;
82926;SDS011;72788;40.218;44.486;2023-10-13T02:19:21;13.27;;;3.53;;
82926;SDS011;72788;40.218;44.486;2023-10-13T02:21:47;11.10;;;3.30;;
82926;SDS011;72788;40.218;44.486;2023-10-13T02:24:23;12.43;;;3.80;;
82926;SDS011;72788;40.218;44.486;2023-10-13T02:26:55;9.13;;;3.08;;
82926;SDS011;72788;40.218;44.486;2023-10-13T02:29:27;15.48;;;4.97;;
82926;SDS011;72788;40.218;44.486;2023-10-13T02:31:53;13.63;;;4.10;;
82926;SDS011;72788;40.218;44.486;2023-10-13T02:34:20;12.48;;;3.95;;
82926;SDS011;72788;40.218;44.486;2023-10-13T02:36:48;14.35;;;4.22;;
82926;SDS011;72788;40.218;44.486;2023-10-13T02:39:17;11.82;;;3.83;;
82926;SDS011;72788;40.218;44.486;2023-10-13T02:41:52;14.60;;;4.50;;
82926;SDS011;72788;40.218;44.486;2023-10-13T02:44:20;9.73;;;4.10;;
82926;SDS011;72788;40.218;44.486;2023-10-13T02:46:55;14.55;;;4.07;;
82926;SDS011;72788;40.218;44.486;2023-10-13T02:49:22;10.18;;;3.70;;
82926;SDS011;72788;40.218;44.486;2023-10-13T02:51:51;15.13;;;3.95;;
82926;SDS011;72788;40.218;44.486;2023-10-13T02:54:18;15.85;;;4.25;;
82926;SDS011;72788;40.218;44.486;2023-10-13T02:56:44;11.85;;;3.10;;
82926;SDS011;72788;40.218;44.486;2023-10-13T02:59:23;14.02;;;3.55;;
82926;SDS011;72788;40.218;44.486;2023-10-13T03:02:08;10.27;;;3.10;;
82926;SDS011;72788;40.218;44.486;2023-10-13T03:04:54;12.57;;;3.70;;
82926;SDS011;72788;40.218;44.486;2023-10-13T03:07:34;14.30;;;3.50;;
82926;SDS011;72788;40.218;44.486;2023-10-13T03:10:01;10.90;;;3.70;;
82926;SDS011;72788;40.218;44.486;2023-10-13T03:12:35;9.23;;;3.20;;
82926;SDS011;72788;40.218;44.486;2023-10-13T03:15:02;11.85;;;3.70;;
82926;SDS011;72788;40.218;44.486;2023-10-13T03:17:45;15.75;;;3.90;;
82926;SDS011;72788;40.218;44.486;2023-10-13T03:20:18;10.10;;;3.75;;
82926;SDS011;72788;40.218;44.486;2023-10-13T03:23:04;13.50;;;4.13;;
82926;SDS011;72788;40.218;44.486;2023-10-13T03:25:34;12.45;;;4.30;;
82926;SDS011;72788;40.218;44.486;2023-10-13T03:28:07;13.52;;;5.10;;
82926;SDS011;72788;40.218;44.486;2023-10-13T03:30:38;12.60;;;4.50;;
82926;SDS011;72788;40.218;44.486;2023-10-13T03:33:07;13.10;;;4.57;;
82926;SDS011;72788;40.218;44.486;2023-10-13T03:35:37;14.13;;;3.85;;
82926;SDS011;72788;40.218;44.486;2023-10-13T03:38:04;10.60;;;3.50;;
82926;SDS011;72788;40.218;44.486;2023-10-13T03:40:42;10.70;;;3.95;;
82926;SDS011;72788;40.218;44.486;2023-10-13T03:43:13;12.20;;;4.03;;
82926;SDS011;72788;40.218;44.486;2023-10-13T03:45:45;12.95;;;4.25;;
82926;SDS011;72788;40.218;44.486;2023-10-13T03:48:16;11.52;;;3.67;;
82926;SDS011;72788;40.218;44.486;2023-10-13T03:50:50;15.07;;;4.03;;
82926;SDS011;72788;40.218;44.486;2023-10-13T03:53:32;13.88;;;4.13;;
82926;SDS011;72788;40.218;44.486;2023-10-13T03:56:01;13.48;;;3.33;;
82926;SDS011;72788;40.218;44.486;2023-10-13T03:58:37;13.10;;;4.55;;
82926;SDS011;72788;40.218;44.486;2023-10-13T04:01:06;13.95;;;4.40;;
82926;SDS011;72788;40.218;44.486;2023-10-13T04:03:34;12.85;;;4.00;;
82926;SDS011;72788;40.218;44.486;2023-10-13T04:06:04;12.55;;;3.75;;
82926;SDS011;72788;40.218;44.486;2023-10-13T04:08:33;11.00;;;4.00;;
82926;SDS011;72788;40.218;44.486;2023-10-13T04:11:08;10.15;;;3.28;;
82926;SDS011;72788;40.218;44.486;2023-10-13T04:13:53;14.93;;;4.32;;
82926;SDS011;72788;40.218;44.486;2023-10-13T04:16:36;14.55;;;4.35;;
82926;SDS011;72788;40.218;44.486;2023-10-13T04:19:04;16.25;;;4.97;;
82926;SDS011;72788;40.218;44.486;2023-10-13T04:21:34;11.35;;;4.32;;
82926;SDS011;72788;40.218;44.486;2023-10-13T04:24:11;17.02;;;4.85;;
82926;SDS011;72788;40.218;44.486;2023-10-13T04:29:28;15.98;;;4.75;;
82926;SDS011;72788;40.218;44.486;2023-10-13T04:32:11;14.32;;;4.82;;
82926;SDS011;72788;40.218;44.486;2023-10-13T04:34:41;18.70;;;5.28;;
82926;SDS011;72788;40.218;44.486;2023-10-13T04:37:11;14.85;;;5.32;;
82926;SDS011;72788;40.218;44.486;2023-10-13T04:39:58;16.13;;;5.88;;
82926;SDS011;72788;40.218;44.486;2023-10-13T04:42:36;13.48;;;4.65;;
82926;SDS011;72788;40.218;44.486;2023-10-13T04:45:16;18.38;;;4.93;;
82926;SDS011;72788;40.218;44.486;2023-10-13T04:47:58;26.58;;;6.15;;
82926;SDS011;72788;40.218;44.486;2023-10-13T04:50:40;19.25;;;6.07;;
82926;SDS011;72788;40.218;44.486;2023-10-13T04:53:19;17.83;;;6.13;;
82926;SDS011;72788;40.218;44.486;2023-10-13T04:56:20;15.18;;;5.30;;
82926;SDS011;72788;40.218;44.486;2023-10-13T04:59:04;25.00;;;6.95;;
82926;SDS011;72788;40.218;44.486;2023-10-13T05:02:01;19.45;;;7.93;;
82926;SDS011;72788;40.218;44.486;2023-10-13T05:04:45;22.73;;;7.45;;
82926;SDS011;72788;40.218;44.486;2023-10-13T05:07:36;24.50;;;6.90;;
82926;SDS011;72788;40.218;44.486;2023-10-13T05:10:41;22.45;;;7.13;;
82926;SDS011;72788;40.218;44.486;2023-10-13T05:13:25;16.55;;;6.78;;
82926;SDS011;72788;40.218;44.486;2023-10-13T05:16:09;23.23;;;7.25;;
82926;SDS011;72788;40.218;44.486;2023-10-13T05:18:53;20.40;;;6.90;;
82926;SDS011;72788;40.218;44.486;2023-10-13T05:21:37;21.30;;;6.95;;
82926;SDS011;72788;40.218;44.486;2023-10-13T05:24:21;14.40;;;6.47;;
82926;SDS011;72788;40.218;44.486;2023-10-13T05:27:05;19.92;;;5.93;;
82926;SDS011;72788;40.218;44.486;2023-10-13T05:29:49;19.75;;;6.50;;
82926;SDS011;72788;40.218;44.486;2023-10-13T05:32:33;56.60;;;10.00;;
82926;SDS011;72788;40.218;44.486;2023-10-13T05:35:18;64.57;;;8.98;;
82926;SDS011;72788;40.218;44.486;2023-10-13T05:38:04;18.90;;;5.68;;
82926;SDS011;72788;40.218;44.486;2023-10-13T05:40:58;13.38;;;4.88;;
82926;SDS011;72788;40.218;44.486;2023-10-13T05:43:43;15.90;;;4.40;;
82926;SDS011;72788;40.218;44.486;2023-10-13T05:46:27;20.85;;;4.40;;
82926;SDS011;72788;40.218;44.486;2023-10-13T05:49:03;13.73;;;4.63;;
82926;SDS011;72788;40.218;44.486;2023-10-13T05:51:44;16.52;;;5.18;;
82926;SDS011;72788;40.218;44.486;2023-10-13T05:54:23;13.50;;;4.53;;
82926;SDS011;72788;40.218;44.486;2023-10-13T05:57:07;14.85;;;4.68;;
82926;SDS011;72788;40.218;44.486;2023-10-13T05:59:51;22.13;;;5.05;;
82926;SDS011;72788;40.218;44.486;2023-10-13T06:02:35;18.60;;;5.60;;
82926;SDS011;72788;40.218;44.486;2023-10-13T06:05:19;18.33;;;5.53;;
82926;SDS011;72788;40.218;44.486;2023-10-13T06:08:03;22.85;;;5.47;;
82926;SDS011;72788;40.218;44.486;2023-10-13T06:10:48;26.10;;;8.57;;
82926;SDS011;72788;40.218;44.486;2023-10-13T06:13:32;21.50;;;8.20;;
82926;SDS011;72788;40.218;44.486;2023-10-13T06:16:16;19.60;;;9.10;;
82926;SDS011;72788;40.218;44.486;2023-10-13T06:19:01;19.27;;;6.75;;
82926;SDS011;72788;40.218;44.486;2023-10-13T06:21:46;14.60;;;5.53;;
82926;SDS011;72788;40.218;44.486;2023-10-13T06:24:31;10.65;;;4.38;;
82926;SDS011;72788;40.218;44.486;2023-10-13T06:27:15;20.02;;;5.18;;
82926;SDS011;72788;40.218;44.486;2023-10-13T06:30:00;19.25;;;7.72;;
82926;SDS011;72788;40.218;44.486;2023-10-13T06:32:27;16.63;;;5.10;;
82926;SDS011;72788;40.218;44.486;2023-10-13T06:34:53;52.42;;;6.72;;
82926;SDS011;72788;40.218;44.486;2023-10-13T06:37:23;40.80;;;6.35;;
82926;SDS011;72788;40.218;44.486;2023-10-13T06:39:58;14.32;;;4.95;;
82926;SDS011;72788;40.218;44.486;2023-10-13T06:42:31;16.33;;;5.70;;
82926;SDS011;72788;40.218;44.486;2023-10-13T06:44:59;29.52;;;11.15;;
82926;SDS011;72788;40.218;44.486;2023-10-13T06:47:28;13.40;;;5.82;;
82926;SDS011;72788;40.218;44.486;2023-10-13T06:49:54;32.10;;;5.90;;
82926;SDS011;72788;40.218;44.486;2023-10-13T06:52:21;17.63;;;5.65;;
82926;SDS011;72788;40.218;44.486;2023-10-13T06:54:51;21.58;;;5.93;;
82926;SDS011;72788;40.218;44.486;2023-10-13T06:57:18;11.50;;;3.80;;
82926;SDS011;72788;40.218;44.486;2023-10-13T06:59:47;20.48;;;6.97;;
82926;SDS011;72788;40.218;44.486;2023-10-13T07:02:13;12.43;;;3.92;;
82926;SDS011;72788;40.218;44.486;2023-10-13T07:04:48;16.38;;;5.00;;
82926;SDS011;72788;40.218;44.486;2023-10-13T07:07:22;16.92;;;4.20;;
82926;SDS011;72788;40.218;44.486;2023-10-13T07:09:49;13.32;;;3.38;;
82926;SDS011;72788;40.218;44.486;2023-10-13T07:12:20;12.80;;;3.72;;
82926;SDS011;72788;40.218;44.486;2023-10-13T07:14:58;15.98;;;3.50;;
82926;SDS011;72788;40.218;44.486;2023-10-13T07:17:41;13.77;;;3.90;;
82926;SDS011;72788;40.218;44.486;2023-10-13T07:20:10;11.98;;;4.47;;
82926;SDS011;72788;40.218;44.486;2023-10-13T07:22:43;21.20;;;4.43;;
82926;SDS011;72788;40.218;44.486;2023-10-13T07:25:27;16.83;;;4.57;;
82926;SDS011;72788;40.218;44.486;2023-10-13T07:27:58;15.45;;;3.78;;
82926;SDS011;72788;40.218;44.486;2023-10-13T07:30:31;11.40;;;3.85;;
82926;SDS011;72788;40.218;44.486;2023-10-13T07:33:04;11.32;;;3.72;;
82926;SDS011;72788;40.218;44.486;2023-10-13T07:35:31;10.18;;;3.63;;
82926;SDS011;72788;40.218;44.486;2023-10-13T07:38:01;12.05;;;3.65;;
82926;SDS011;72788;40.218;44.486;2023-10-13T07:40:28;18.00;;;3.35;;
82926;SDS011;72788;40.218;44.486;2023-10-13T07:42:54;11.27;;;4.03;;
82926;SDS011;72788;40.218;44.486;2023-10-13T07:45:26;11.32;;;3.70;;
82926;SDS011;72788;40.218;44.486;2023-10-13T07:48:01;11.45;;;3.70;;
82926;SDS011;72788;40.218;44.486;2023-10-13T07:50:33;20.63;;;3.88;;
82926;SDS011;72788;40.218;44.486;2023-10-13T07:52:59;15.55;;;3.90;;
82926;SDS011;72788;40.218;44.486;2023-10-13T07:55:44;11.25;;;4.00;;
82926;SDS011;72788;40.218;44.486;2023-10-13T07:58:11;10.52;;;3.10;;
82926;SDS011;72788;40.218;44.486;2023-10-13T08:00:38;19.27;;;6.05;;
82926;SDS011;72788;40.218;44.486;2023-10-13T08:03:11;14.48;;;5.20;;
82926;SDS011;72788;40.218;44.486;2023-10-13T08:05:40;12.77;;;4.20;;
82926;SDS011;72788;40.218;44.486;2023-10-13T08:08:31;13.45;;;3.30;;
82926;SDS011;72788;40.218;44.486;2023-10-13T08:11:06;14.70;;;4.03;;
82926;SDS011;72788;40.218;44.486;2023-10-13T08:13:57;16.25;;;4.93;;
82926;SDS011;72788;40.218;44.486;2023-10-13T08:16:28;11.75;;;3.50;;
82926;SDS011;72788;40.218;44.486;2023-10-13T08:19:13;17.42;;;3.88;;
82926;SDS011;72788;40.218;44.486;2023-10-13T08:21:40;13.00;;;3.92;;
82926;SDS011;72788;40.218;44.486;2023-10-13T08:24:14;14.38;;;4.10;;
82926;SDS011;72788;40.218;44.486;2023-10-13T08:26:52;11.73;;;4.00;;
82926;SDS011;72788;40.218;44.486;2023-10-13T08:29:36;16.17;;;5.88;;
82926;SDS011;72788;40.218;44.486;2023-10-13T08:32:20;15.88;;;5.57;;
82926;SDS011;72788;40.218;44.486;2023-10-13T08:34:58;21.45;;;6.90;;
82926;SDS011;72788;40.218;44.486;2023-10-13T08:37:31;18.15;;;5.00;;
82926;SDS011;72788;40.218;44.486;2023-10-13T08:40:26;18.48;;;4.70;;
82926;SDS011;72788;40.218;44.486;2023-10-13T08:43:01;14.07;;;4.90;;
82926;SDS011;72788;40.218;44.486;2023-10-13T08:45:30;14.73;;;3.92;;
82926;SDS011;72788;40.218;44.486;2023-10-13T08:48:00;16.27;;;4.78;;
82926;SDS011;72788;40.218;44.486;2023-10-13T08:50:33;14.15;;;3.85;;
82926;SDS011;72788;40.218;44.486;2023-10-13T08:53:31;13.85;;;4.53;;
82926;SDS011;72788;40.218;44.486;2023-10-13T08:56:05;13.95;;;4.47;;
82926;SDS011;72788;40.218;44.486;2023-10-13T08:58:44;18.70;;;4.40;;
82926;SDS011;72788;40.218;44.486;2023-10-13T09:04:02;14.20;;;4.28;;
82926;SDS011;72788;40.218;44.486;2023-10-13T09:07:05;16.00;;;4.90;;
82926;SDS011;72788;40.218;44.486;2023-10-13T09:09:31;13.50;;;4.80;;
82926;SDS011;72788;40.218;44.486;2023-10-13T09:12:13;10.85;;;4.55;;
82926;SDS011;72788;40.218;44.486;2023-10-13T09:14:40;13.10;;;4.45;;
82926;SDS011;72788;40.218;44.486;2023-10-13T09:17:10;13.25;;;4.13;;
82926;SDS011;72788;40.218;44.486;2023-10-13T09:19:44;13.98;;;4.82;;
82926;SDS011;72788;40.218;44.486;2023-10-13T09:22:24;15.20;;;4.68;;
82926;SDS011;72788;40.218;44.486;2023-10-13T09:25:01;14.02;;;4.65;;
82926;SDS011;72788;40.218;44.486;2023-10-13T09:27:38;11.93;;;4.55;;
82926;SDS011;72788;40.218;44.486;2023-10-13T09:30:05;19.65;;;4.80;;
82926;SDS011;72788;40.218;44.486;2023-10-13T09:32:48;14.52;;;4.72;;
82926;SDS011;72788;40.218;44.486;2023-10-13T09:35:26;16.27;;;4.55;;
82926;SDS011;72788;40.218;44.486;2023-10-13T09:37:53;11.98;;;4.47;;
82926;SDS011;72788;40.218;44.486;2023-10-13T09:40:22;12.30;;;4.38;;
82926;SDS011;72788;40.218;44.486;2023-10-13T09:43:01;13.55;;;4.43;;
82926;SDS011;72788;40.218;44.486;2023-10-13T09:45:34;13.95;;;4.03;;
82926;SDS011;72788;40.218;44.486;2023-10-13T09:48:12;13.20;;;5.20;;
82926;SDS011;72788;40.218;44.486;2023-10-13T09:50:51;16.67;;;3.95;;
82926;SDS011;72788;40.218;44.486;2023-10-13T09:53:21;16.80;;;4.93;;
82926;SDS011;72788;40.218;44.486;2023-10-13T09:58:55;10.93;;;4.43;;
82926;SDS011;72788;40.218;44.486;2023-10-13T10:01:34;13.40;;;4.82;;
82926;SDS011;72788;40.218;44.486;2023-10-13T10:04:14;16.55;;;4.20;;
82926;SDS011;72788;40.218;44.486;2023-10-13T10:06:55;14.77;;;4.60;;
82926;SDS011;72788;40.218;44.486;2023-10-13T10:09:29;14.18;;;4.20;;
82926;SDS011;72788;40.218;44.486;2023-10-13T10:14:56;13.13;;;4.03;;
82926;SDS011;72788;40.218;44.486;2023-10-13T10:17:42;16.92;;;5.20;;
82926;SDS011;72788;40.218;44.486;2023-10-13T10:20:09;13.15;;;4.60;;
82926;SDS011;72788;40.218;44.486;2023-10-13T10:22:55;14.90;;;3.95;;
82926;SDS011;72788;40.218;44.486;2023-10-13T10:25:30;19.77;;;4.88;;
82926;SDS011;72788;40.218;44.486;2023-10-13T10:28:06;10.02;;;4.22;;
82926;SDS011;72788;40.218;44.486;2023-10-13T10:30:33;10.18;;;4.13;;
82926;SDS011;72788;40.218;44.486;2023-10-13T10:33:01;13.50;;;4.65;;
82926;SDS011;72788;40.218;44.486;2023-10-13T10:35:59;15.05;;;4.30;;
82926;SDS011;72788;40.218;44.486;2023-10-13T10:38:26;11.02;;;4.30;;
82926;SDS011;72788;40.218;44.486;2023-10-13T10:40:55;12.65;;;4.43;;
82926;SDS011;72788;40.218;44.486;2023-10-13T10:46:29;12.10;;;3.72;;
82926;SDS011;72788;40.218;44.486;2023-10-13T10:49:06;16.42;;;5.53;;
82926;SDS011;72788;40.218;44.486;2023-10-13T10:51:33;17.40;;;4.45;;
82926;SDS011;72788;40.218;44.486;2023-10-13T10:54:17;21.02;;;6.30;;
82926;SDS011;72788;40.218;44.486;2023-10-13T10:56:45;18.13;;;5.88;;
82926;SDS011;72788;40.218;44.486;2023-10-13T10:59:18;16.75;;;5.68;;
82926;SDS011;72788;40.218;44.486;2023-10-13T11:01:45;15.70;;;5.07;;
82926;SDS011;72788;40.218;44.486;2023-10-13T11:04:16;22.42;;;4.75;;
82926;SDS011;72788;40.218;44.486;2023-10-13T11:06:54;11.45;;;4.00;;
82926;SDS011;72788;40.218;44.486;2023-10-13T11:09:28;17.35;;;4.70;;
82926;SDS011;72788;40.218;44.486;2023-10-13T11:15:05;20.40;;;5.45;;
82926;SDS011;72788;40.218;44.486;2023-10-13T11:17:58;14.57;;;5.32;;
82926;SDS011;72788;40.218;44.486;2023-10-13T11:20:24;13.40;;;5.10;;
82926;SDS011;72788;40.218;44.486;2023-10-13T11:22:58;14.55;;;4.25;;
82926;SDS011;72788;40.218;44.486;2023-10-13T11:25:33;13.45;;;4.72;;
82926;SDS011;72788;40.218;44.486;2023-10-13T11:28:12;10.73;;;3.60;;
82926;SDS011;72788;40.218;44.486;2023-10-13T11:30:46;14.05;;;4.22;;
82926;SDS011;72788;40.218;44.486;2023-10-13T11:33:16;14.65;;;4.45;;
82926;SDS011;72788;40.218;44.486;2023-10-13T11:35:57;11.48;;;4.18;;
82926;SDS011;72788;40.218;44.486;2023-10-13T11:38:29;15.80;;;5.30;;
82926;SDS011;72788;40.218;44.486;2023-10-13T11:41:13;20.23;;;6.57;;
82926;SDS011;72788;40.218;44.486;2023-10-13T11:43:47;15.02;;;5.55;;
82926;SDS011;72788;40.218;44.486;2023-10-13T11:46:17;18.15;;;4.80;;
82926;SDS011;72788;40.218;44.486;2023-10-13T11:49:08;20.83;;;5.72;;
82926;SDS011;72788;40.218;44.486;2023-10-13T11:54:10;14.05;;;4.18;;
82926;SDS011;72788;40.218;44.486;2023-10-13T11:56:37;15.80;;;4.00;;
82926;SDS011;72788;40.218;44.486;2023-10-13T11:59:04;11.82;;;3.85;;
82926;SDS011;72788;40.218;44.486;2023-10-13T12:01:31;18.42;;;4.40;;
82926;SDS011;72788;40.218;44.486;2023-10-13T12:04:29;17.52;;;5.00;;
82926;SDS011;72788;40.218;44.486;2023-10-13T12:06:58;21.38;;;4.95;;
82926;SDS011;72788;40.218;44.486;2023-10-13T12:09:39;15.88;;;4.00;;
82926;SDS011;72788;40.218;44.486;2023-10-13T12:12:25;12.55;;;4.03;;
82926;SDS011;72788;40.218;44.486;2023-10-13T12:14:55;17.52;;;4.93;;
82926;SDS011;72788;40.218;44.486;2023-10-13T12:17:25;16.33;;;5.30;;
82926;SDS011;72788;40.218;44.486;2023-10-13T12:20:00;15.77;;;4.13;;
82926;SDS011;72788;40.218;44.486;2023-10-13T12:22:29;12.25;;;4.45;;
82926;SDS011;72788;40.218;44.486;2023-10-13T12:25:03;15.25;;;3.55;;
82926;SDS011;72788;40.218;44.486;2023-10-13T12:27:43;13.52;;;4.80;;
82926;SDS011;72788;40.218;44.486;2023-10-13T12:30:13;14.65;;;4.65;;
82926;SDS011;72788;40.218;44.486;2023-10-13T12:32:41;17.75;;;5.38;;
82926;SDS011;72788;40.218;44.486;2023-10-13T12:35:19;17.98;;;4.57;;
82926;SDS011;72788;40.218;44.486;2023-10-13T12:38:09;15.23;;;4.80;;
82926;SDS011;72788;40.218;44.486;2023-10-13T12:40:55;17.58;;;3.97;;
82926;SDS011;72788;40.218;44.486;2023-10-13T12:43:39;13.05;;;3.97;;
82926;SDS011;72788;40.218;44.486;2023-10-13T12:46:23;18.75;;;4.18;;
82926;SDS011;72788;40.218;44.486;2023-10-13T12:49:07;16.73;;;5.35;;
82926;SDS011;72788;40.218;44.486;2023-10-13T12:51:52;13.85;;;3.67;;
82926;SDS011;72788;40.218;44.486;2023-10-13T12:54:18;12.50;;;3.60;;
82926;SDS011;72788;40.218;44.486;2023-10-13T12:56:49;13.80;;;3.90;;
82926;SDS011;72788;40.218;44.486;2023-10-13T12:59:21;16.42;;;4.32;;
82926;SDS011;72788;40.218;44.486;2023-10-13T13:01:52;12.05;;;4.78;;
82926;SDS011;72788;40.218;44.486;2023-10-13T13:04:18;11.07;;;4.10;;
82926;SDS011;72788;40.218;44.486;2023-10-13T13:06:49;13.10;;;4.45;;
82926;SDS011;72788;40.218;44.486;2023-10-13T13:09:15;21.75;;;4.90;;
82926;SDS011;72788;40.218;44.486;2023-10-13T13:11:50;16.25;;;4.63;;
82926;SDS011;72788;40.218;44.486;2023-10-13T13:14:23;22.00;;;5.05;;
82926;SDS011;72788;40.218;44.486;2023-10-13T13:16:55;16.50;;;4.53;;
82926;SDS011;72788;40.218;44.486;2023-10-13T13:19:31;29.95;;;8.63;;
82926;SDS011;72788;40.218;44.486;2023-10-13T13:22:07;17.40;;;5.55;;
82926;SDS011;72788;40.218;44.486;2023-10-13T13:24:45;12.57;;;4.20;;
82926;SDS011;72788;40.218;44.486;2023-10-13T13:27:13;18.00;;;4.00;;
82926;SDS011;72788;40.218;44.486;2023-10-13T13:29:46;48.53;;;13.43;;
82926;SDS011;72788;40.218;44.486;2023-10-13T13:32:12;21.60;;;7.22;;
82926;SDS011;72788;40.218;44.486;2023-10-13T13:34:50;16.50;;;4.70;;
82926;SDS011;72788;40.218;44.486;2023-10-13T13:37:33;16.80;;;5.07;;
82926;SDS011;72788;40.218;44.486;2023-10-13T13:39:59;22.75;;;6.20;;
82926;SDS011;72788;40.218;44.486;2023-10-13T13:42:47;18.30;;;4.63;;
82926;SDS011;72788;40.218;44.486;2023-10-13T13:45:16;15.50;;;4.50;;
82926;SDS011;72788;40.218;44.486;2023-10-13T13:47:50;25.42;;;6.22;;
82926;SDS011;72788;40.218;44.486;2023-10-13T13:50:22;14.75;;;4.93;;
82926;SDS011;72788;40.218;44.486;2023-10-13T13:52:58;12.90;;;4.20;;
82926;SDS011;72788;40.218;44.486;2023-10-13T13:55:26;17.05;;;4.68;;
82926;SDS011;72788;40.218;44.486;2023-10-13T13:57:56;43.95;;;15.00;;
82926;SDS011;72788;40.218;44.486;2023-10-13T14:00:22;24.52;;;5.65;;
82926;SDS011;72788;40.218;44.486;2023-10-13T14:03:03;35.67;;;11.05;;
82926;SDS011;72788;40.218;44.486;2023-10-13T14:05:29;41.17;;;12.95;;
82926;SDS011;72788;40.218;44.486;2023-10-13T14:07:55;35.60;;;15.32;;
82926;SDS011;72788;40.218;44.486;2023-10-13T14:10:20;26.05;;;9.13;;
82926;SDS011;72788;40.218;44.486;2023-10-13T14:13:02;17.17;;;6.43;;
82926;SDS011;72788;40.218;44.486;2023-10-13T14:15:40;26.52;;;6.97;;
82926;SDS011;72788;40.218;44.486;2023-10-13T14:18:09;16.92;;;4.22;;
82926;SDS011;72788;40.218;44.486;2023-10-13T14:20:40;23.05;;;5.80;;
82926;SDS011;72788;40.218;44.486;2023-10-13T14:23:07;14.52;;;4.18;;
82926;SDS011;72788;40.218;44.486;2023-10-13T14:25:37;21.55;;;4.88;;
82926;SDS011;72788;40.218;44.486;2023-10-13T14:28:09;13.77;;;4.53;;
82926;SDS011;72788;40.218;44.486;2023-10-13T14:30:36;19.33;;;5.78;;
82926;SDS011;72788;40.218;44.486;2023-10-13T14:33:02;22.17;;;6.60;;
82926;SDS011;72788;40.218;44.486;2023-10-13T14:35:28;19.42;;;5.85;;
82926;SDS011;72788;40.218;44.486;2023-10-13T14:37:54;20.95;;;5.95;;
82926;SDS011;72788;40.218;44.486;2023-10-13T14:40:20;21.98;;;6.07;;
82926;SDS011;72788;40.218;44.486;2023-10-13T14:42:47;19.08;;;5.38;;
82926;SDS011;72788;40.218;44.486;2023-10-13T14:45:13;20.10;;;5.13;;
82926;SDS011;72788;40.218;44.486;2023-10-13T14:47:41;18.52;;;5.75;;
82926;SDS011;72788;40.218;44.486;2023-10-13T14:50:08;19.90;;;5.32;;
82926;SDS011;72788;40.218;44.486;2023-10-13T14:52:49;17.10;;;4.63;;
82926;SDS011;72788;40.218;44.486;2023-10-13T14:55:16;17.90;;;5.20;;
82926;SDS011;72788;40.218;44.486;2023-10-13T14:57:48;13.27;;;4.35;;
82926;SDS011;72788;40.218;44.486;2023-10-13T15:00:15;18.58;;;5.22;;
82926;SDS011;72788;40.218;44.486;2023-10-13T15:02:49;21.17;;;5.30;;
82926;SDS011;72788;40.218;44.486;2023-10-13T15:05:14;19.00;;;6.63;;
82926;SDS011;72788;40.218;44.486;2023-10-13T15:07:42;38.17;;;17.17;;
82926;SDS011;72788;40.218;44.486;2023-10-13T15:10:13;23.92;;;8.27;;
82926;SDS011;72788;40.218;44.486;2023-10-13T15:12:42;27.25;;;6.40;;
82926;SDS011;72788;40.218;44.486;2023-10-13T15:15:09;21.63;;;5.75;;
82926;SDS011;72788;40.218;44.486;2023-10-13T15:17:39;17.13;;;6.20;;
82926;SDS011;72788;40.218;44.486;2023-10-13T15:20:08;21.05;;;7.78;;
82926;SDS011;72788;40.218;44.486;2023-10-13T15:22:52;19.65;;;5.90;;
82926;SDS011;72788;40.218;44.486;2023-10-13T15:25:25;38.75;;;12.50;;
82926;SDS011;72788;40.218;44.486;2023-10-13T15:27:59;33.78;;;10.25;;
82926;SDS011;72788;40.218;44.486;2023-10-13T15:30:29;23.67;;;8.23;;
82926;SDS011;72788;40.218;44.486;2023-10-13T15:33:17;26.80;;;7.38;;